Time;durP1;ratioP1;P1;durP2;ratioP2;P2;SDS_P1;SDS_P2;PMS_P1;PMS_P2;Temp;Humidity;BMP_temperature;BMP_pressure;BME280_temperature;BME280_humidity;BME280_pressure;Samples;Min_cycle;Max_cycle;Signal;HPM_P1;HPM_P2
2021/04/02 00:02:45;;;;;;;9.33;3.03;;;;;;;;;;10460580;28;20229;-69
2021/04/02 00:07:47;;;;;;;7.13;2.93;;;;;;;;;;10469850;28;20209;-71
2021/04/02 00:12:50;;;;;;;8.93;2.93;;;;;;;;;;10473805;28;20231;-70
2021/04/02 00:17:52;;;;;;;5.73;2.53;;;;;;;;;;10464141;28;20189;-70
2021/04/02 00:22:53;;;;;;;7.83;3.10;;;;;;;;;;10466647;28;20200;-71
2021/04/02 00:27:55;;;;;;;8.00;3.00;;;;;;;;;;10465277;28;20208;-70
2021/04/02 00:32:57;;;;;;;7.47;3.07;;;;;;;;;;10473992;28;20211;-71
2021/04/02 00:37:59;;;;;;;10.87;3.80;;;;;;;;;;10476739;28;20185;-71
2021/04/02 00:43:04;;;;;;;6.90;3.00;;;;;;;;;;10475801;28;20574;-70
2021/04/02 00:48:06;;;;;;;11.33;3.60;;;;;;;;;;10480067;28;20282;-71
2021/04/02 00:53:08;;;;;;;8.33;3.40;;;;;;;;;;10478796;28;20217;-71
2021/04/02 00:58:12;;;;;;;8.73;3.63;;;;;;;;;;10480893;28;20247;-71
2021/04/02 01:03:14;;;;;;;10.07;3.47;;;;;;;;;;10464667;28;20259;-71
2021/04/02 01:08:18;;;;;;;11.43;3.60;;;;;;;;;;10468644;28;20220;-71
2021/04/02 01:13:22;;;;;;;7.67;3.80;;;;;;;;;;10480370;28;20553;-71
2021/04/02 01:18:30;;;;;;;8.60;4.13;;;;;;;;;;10474097;28;20263;-70
2021/04/02 01:23:39;;;;;;;10.53;4.47;;;;;;;;;;10482416;28;20591;-71
2021/04/02 01:28:48;;;;;;;11.13;4.67;;;;;;;;;;10481171;28;20625;-70
2021/04/02 01:33:50;;;;;;;11.70;4.70;;;;;;;;;;10473174;28;20293;-71
2021/04/02 01:38:53;;;;;;;14.47;5.20;;;;;;;;;;10468552;28;20189;-71
2021/04/02 01:43:58;;;;;;;10.63;4.83;;;;;;;;;;10485301;28;20281;-71
2021/04/02 01:49:04;;;;;;;12.03;5.40;;;;;;;;;;10482953;28;20415;-70
2021/04/02 01:54:06;;;;;;;9.87;4.90;;;;;;;;;;10465665;28;20593;-70
2021/04/02 01:59:09;;;;;;;12.50;5.87;;;;;;;;;;10474917;28;20235;-70
2021/04/02 02:04:11;;;;;;;12.93;5.90;;;;;;;;;;10482211;28;20226;-69
2021/04/02 02:09:14;;;;;;;13.83;6.70;;;;;;;;;;10479095;28;20533;-70
2021/04/02 02:14:18;;;;;;;13.13;7.43;;;;;;;;;;10464721;28;20312;-70
2021/04/02 02:19:20;;;;;;;15.23;7.23;;;;;;;;;;10471476;28;20189;-70
2021/04/02 02:24:24;;;;;;;14.10;7.53;;;;;;;;;;10472829;28;20306;-70
2021/04/02 02:29:26;;;;;;;16.67;8.70;;;;;;;;;;10477185;28;20247;-70
2021/04/02 02:34:28;;;;;;;16.47;7.90;;;;;;;;;;10472976;28;20223;-70
2021/04/02 02:39:29;;;;;;;15.83;7.63;;;;;;;;;;10475894;28;20704;-71
2021/04/02 02:44:32;;;;;;;15.77;8.20;;;;;;;;;;10467699;28;20577;-72
2021/04/02 02:49:34;;;;;;;15.47;7.70;;;;;;;;;;10481891;28;20216;-71
2021/04/02 02:54:37;;;;;;;16.17;7.77;;;;;;;;;;10475530;28;22254;-71
2021/04/02 02:59:40;;;;;;;15.90;7.07;;;;;;;;;;10475809;28;20189;-72
2021/04/02 03:04:43;;;;;;;14.27;7.47;;;;;;;;;;10470944;28;20250;-70
2021/04/02 03:09:45;;;;;;;15.87;7.67;;;;;;;;;;10468206;28;20259;-70
2021/04/02 03:14:48;;;;;;;17.00;8.23;;;;;;;;;;10466619;28;20629;-71
2021/04/02 03:19:50;;;;;;;16.97;8.43;;;;;;;;;;10471645;28;20197;-70
2021/04/02 03:24:54;;;;;;;19.80;9.17;;;;;;;;;;10479907;28;20208;-70
2021/04/02 03:29:56;;;;;;;19.60;9.10;;;;;;;;;;10466283;28;20275;-70
2021/04/02 03:34:59;;;;;;;19.97;9.50;;;;;;;;;;10479776;28;20223;-71
2021/04/02 03:40:04;;;;;;;21.20;10.93;;;;;;;;;;10464982;28;20200;-69
2021/04/02 03:45:11;;;;;;;25.37;13.00;;;;;;;;;;10468373;28;20339;-71
2021/04/02 03:50:14;;;;;;;27.83;14.60;;;;;;;;;;10461889;28;20223;-71
2021/04/02 03:55:19;;;;;;;29.17;15.67;;;;;;;;;;10478370;28;20217;-71
2021/04/02 04:00:25;;;;;;;34.00;17.70;;;;;;;;;;10474744;28;20238;-72
2021/04/02 04:05:28;;;;;;;36.23;19.07;;;;;;;;;;10469247;28;20525;-73
2021/04/02 04:10:30;;;;;;;35.13;17.67;;;;;;;;;;10482160;28;20739;-72
2021/04/02 04:15:33;;;;;;;34.50;18.13;;;;;;;;;;10486325;28;20216;-70
2021/04/02 04:20:36;;;;;;;30.87;17.13;;;;;;;;;;10487873;28;20299;-70
2021/04/02 04:25:38;;;;;;;27.33;15.27;;;;;;;;;;10473825;28;20211;-70
2021/04/02 04:30:41;;;;;;;29.87;16.20;;;;;;;;;;10483050;28;20248;-72
2021/04/02 04:35:43;;;;;;;26.03;13.80;;;;;;;;;;10479146;28;20230;-72
2021/04/02 04:40:45;;;;;;;25.03;14.00;;;;;;;;;;10481778;28;20189;-70
2021/04/02 04:45:47;;;;;;;27.57;13.97;;;;;;;;;;10485969;28;20293;-70
2021/04/02 04:50:49;;;;;;;23.50;12.47;;;;;;;;;;10466090;28;20285;-71
2021/04/02 04:55:52;;;;;;;26.57;14.10;;;;;;;;;;10481389;28;20217;-71
2021/04/02 05:00:55;;;;;;;25.53;14.00;;;;;;;;;;10477606;28;20188;-70
2021/04/02 05:05:58;;;;;;;26.17;14.13;;;;;;;;;;10477566;28;20244;-71
2021/04/02 05:11:04;;;;;;;27.50;14.53;;;;;;;;;;10483325;28;20208;-71
2021/04/02 05:16:07;;;;;;;26.27;14.40;;;;;;;;;;10473584;28;20225;-72
2021/04/02 05:21:08;;;;;;;26.87;15.40;;;;;;;;;;10475444;28;20274;-70
2021/04/02 05:26:11;;;;;;;29.87;15.97;;;;;;;;;;10493316;28;20616;-68
2021/04/02 05:31:14;;;;;;;26.03;14.80;;;;;;;;;;10477360;28;20264;-70
2021/04/02 05:36:16;;;;;;;32.67;19.03;;;;;;;;;;10466819;28;20216;-70
2021/04/02 05:41:19;;;;;;;36.67;20.70;;;;;;;;;;10474165;28;21131;-70
2021/04/02 05:46:23;;;;;;;36.73;20.50;;;;;;;;;;10479879;28;20252;-70
2021/04/02 05:51:26;;;;;;;37.63;21.30;;;;;;;;;;10475522;28;20299;-70
2021/04/02 05:56:31;;;;;;;40.40;23.17;;;;;;;;;;10478440;28;20293;-71
2021/04/02 06:01:34;;;;;;;37.80;22.20;;;;;;;;;;10462571;28;20184;-69
2021/04/02 06:06:36;;;;;;;38.80;24.20;;;;;;;;;;10477232;28;20737;-72
2021/04/02 06:11:38;;;;;;;37.37;22.60;;;;;;;;;;10475339;28;20643;-71
2021/04/02 06:16:47;;;;;;;39.83;23.33;;;;;;;;;;10477335;28;20208;-71
2021/04/02 06:21:50;;;;;;;36.20;21.90;;;;;;;;;;10475364;28;20312;-71
2021/04/02 06:26:58;;;;;;;33.17;21.47;;;;;;;;;;10474785;28;20212;-69
2021/04/02 06:32:00;;;;;;;30.57;19.60;;;;;;;;;;10472559;28;20365;-70
2021/04/02 06:37:05;;;;;;;34.77;20.50;;;;;;;;;;10475517;28;20334;-71
2021/04/02 06:42:09;;;;;;;31.27;19.53;;;;;;;;;;10466552;28;20578;-71
2021/04/02 06:47:12;;;;;;;31.83;19.63;;;;;;;;;;10465469;28;20236;-70
2021/04/02 06:52:13;;;;;;;33.67;20.63;;;;;;;;;;10470605;28;20549;-71
2021/04/02 06:57:15;;;;;;;28.60;19.43;;;;;;;;;;10483334;28;20234;-72
2021/04/02 07:02:18;;;;;;;32.03;20.80;;;;;;;;;;10477941;28;20265;-70
2021/04/02 07:07:20;;;;;;;34.27;21.00;;;;;;;;;;10478512;28;20291;-71
2021/04/02 07:12:22;;;;;;;33.63;21.30;;;;;;;;;;10465457;28;20358;-71
2021/04/02 07:17:25;;;;;;;31.97;20.67;;;;;;;;;;10455243;28;20216;-70
2021/04/02 07:22:28;;;;;;;30.67;19.37;;;;;;;;;;10468589;28;20273;-72
2021/04/02 07:27:29;;;;;;;34.87;21.33;;;;;;;;;;10471987;28;20208;-72
2021/04/02 07:32:33;;;;;;;31.47;20.43;;;;;;;;;;10478355;28;20283;-70
2021/04/02 07:37:38;;;;;;;35.53;21.50;;;;;;;;;;10476734;28;20350;-69
2021/04/02 07:42:39;;;;;;;35.10;21.70;;;;;;;;;;10473781;28;20185;-71
2021/04/02 07:47:49;;;;;;;31.00;19.83;;;;;;;;;;10473963;28;20229;-72
2021/04/02 07:52:52;;;;;;;29.53;18.90;;;;;;;;;;10467097;28;20211;-70
2021/04/02 07:57:55;;;;;;;29.13;18.40;;;;;;;;;;10473483;28;20664;-70
2021/04/02 08:03:07;;;;;;;28.93;19.03;;;;;;;;;;10475378;28;20192;-71
2021/04/02 08:08:13;;;;;;;27.47;18.57;;;;;;;;;;10460932;28;20295;-70
2021/04/02 08:13:15;;;;;;;30.00;18.73;;;;;;;;;;10465929;28;20310;-70
2021/04/02 08:18:19;;;;;;;26.23;17.90;;;;;;;;;;10466968;28;20293;-70
2021/04/02 08:23:22;;;;;;;26.87;18.87;;;;;;;;;;10470265;28;21651;-73
2021/04/02 08:28:24;;;;;;;30.13;18.53;;;;;;;;;;10470793;28;20655;-71
2021/04/02 08:33:28;;;;;;;29.93;20.17;;;;;;;;;;10476346;28;20299;-72
2021/04/02 08:38:29;;;;;;;27.60;19.47;;;;;;;;;;10462999;28;20207;-72
2021/04/02 08:43:40;;;;;;;26.90;18.17;;;;;;;;;;10474807;28;20302;-73
2021/04/02 08:48:45;;;;;;;28.33;19.20;;;;;;;;;;10465541;28;20700;-72
2021/04/02 08:53:46;;;;;;;30.27;19.97;;;;;;;;;;10479259;28;20212;-72
2021/04/02 08:58:48;;;;;;;29.00;18.60;;;;;;;;;;10481875;28;20195;-72
2021/04/02 09:03:52;;;;;;;29.07;19.13;;;;;;;;;;10484261;28;20230;-70
2021/04/02 09:08:53;;;;;;;26.47;17.73;;;;;;;;;;10478747;28;20257;-71
2021/04/02 09:13:55;;;;;;;25.47;17.40;;;;;;;;;;10471777;28;20681;-70
2021/04/02 09:18:58;;;;;;;25.67;17.47;;;;;;;;;;10477044;28;20204;-72
2021/04/02 09:24:09;;;;;;;25.23;16.67;;;;;;;;;;10477163;28;20281;-70
2021/04/02 09:29:12;;;;;;;23.40;15.27;;;;;;;;;;10467932;28;20204;-72
2021/04/02 09:34:18;;;;;;;22.93;15.47;;;;;;;;;;10470526;28;20232;-70
2021/04/02 09:39:21;;;;;;;24.37;15.80;;;;;;;;;;10474638;28;20184;-71
2021/04/02 09:44:24;;;;;;;25.43;16.00;;;;;;;;;;10482635;28;20212;-74
2021/04/02 09:49:26;;;;;;;23.33;14.87;;;;;;;;;;10478580;28;20217;-71
2021/04/02 09:54:30;;;;;;;23.67;16.10;;;;;;;;;;10470810;28;20208;-70
2021/04/02 09:59:33;;;;;;;22.97;16.17;;;;;;;;;;10470340;28;20196;-71
2021/04/02 10:04:35;;;;;;;22.43;15.57;;;;;;;;;;10472925;28;20287;-73
2021/04/02 10:09:37;;;;;;;24.73;16.37;;;;;;;;;;10469251;28;20223;-72
2021/04/02 10:14:39;;;;;;;21.00;15.67;;;;;;;;;;10468897;28;20220;-73
2021/04/02 10:19:41;;;;;;;27.30;16.63;;;;;;;;;;10470970;28;20253;-71
2021/04/02 10:24:43;;;;;;;22.97;16.30;;;;;;;;;;10466794;28;20216;-72
2021/04/02 10:29:44;;;;;;;19.43;14.43;;;;;;;;;;10467136;28;20223;-71
2021/04/02 10:34:47;;;;;;;21.77;16.75;;;;;;;;;;10462103;28;20231;-71
2021/04/02 10:39:48;;;;;;;22.83;18.38;;;;;;;;;;10462853;28;20572;-70
2021/04/02 10:44:50;;;;;;;22.98;17.05;;;;;;;;;;10468900;28;20224;-71
2021/04/02 10:49:52;;;;;;;20.27;18.02;;;;;;;;;;10464342;28;20293;-70
2021/04/02 10:54:54;;;;;;;21.25;17.13;;;;;;;;;;10464974;28;20210;-72
2021/04/02 10:59:55;;;;;;;20.90;17.30;;;;;;;;;;10459233;28;20880;-72
2021/04/02 11:05:00;;;;;;;22.20;18.02;;;;;;;;;;10467938;28;20254;-72
2021/04/02 11:10:05;;;;;;;20.05;17.05;;;;;;;;;;10475617;28;20562;-73
2021/04/02 11:15:08;;;;;;;20.05;16.67;;;;;;;;;;10459015;28;20219;-72
2021/04/02 11:20:11;;;;;;;20.38;16.80;;;;;;;;;;10480219;28;20198;-71
2021/04/02 11:25:13;;;;;;;19.13;15.60;;;;;;;;;;10478451;28;20223;-72
2021/04/02 11:30:16;;;;;;;17.75;15.70;;;;;;;;;;10482228;28;20303;-71
2021/04/02 11:35:19;;;;;;;17.25;15.45;;;;;;;;;;10478468;28;20288;-71
2021/04/02 11:40:21;;;;;;;17.60;15.70;;;;;;;;;;10464789;28;20755;-73
2021/04/02 11:45:23;;;;;;;18.52;15.55;;;;;;;;;;10475320;28;20220;-73
2021/04/02 11:50:25;;;;;;;18.10;14.63;;;;;;;;;;10477095;28;20689;-71
2021/04/02 11:55:27;;;;;;;20.20;15.60;;;;;;;;;;10469246;28;20307;-71
2021/04/02 12:00:29;;;;;;;18.40;14.18;;;;;;;;;;10475502;28;20283;-70
2021/04/02 12:05:31;;;;;;;18.13;13.98;;;;;;;;;;10472636;28;20215;-71
2021/04/02 12:10:33;;;;;;;16.40;12.98;;;;;;;;;;10472024;28;20228;-71
2021/04/02 12:15:35;;;;;;;19.02;13.93;;;;;;;;;;10465199;28;20213;-71
2021/04/02 12:20:37;;;;;;;19.05;14.68;;;;;;;;;;10472686;28;20267;-70
2021/04/02 12:25:39;;;;;;;16.42;13.93;;;;;;;;;;10467706;28;20287;-71
2021/04/02 12:30:40;;;;;;;17.92;15.07;;;;;;;;;;10482739;28;20254;-72
2021/04/02 12:35:43;;;;;;;17.33;14.13;;;;;;;;;;10487206;28;20315;-72
2021/04/02 12:40:45;;;;;;;15.23;13.13;;;;;;;;;;10484688;28;20218;-71
2021/04/02 12:45:46;;;;;;;16.23;13.27;;;;;;;;;;10483845;28;20323;-72
2021/04/02 12:50:49;;;;;;;17.95;14.05;;;;;;;;;;10487166;28;20294;-71
2021/04/02 12:55:51;;;;;;;17.67;13.00;;;;;;;;;;10504936;28;20680;-72
2021/04/02 13:00:53;;;;;;;16.42;12.93;;;;;;;;;;10513795;28;20227;-72
2021/04/02 13:05:55;;;;;;;17.52;13.30;;;;;;;;;;10518541;28;20204;-71
2021/04/02 13:10:57;;;;;;;17.23;13.23;;;;;;;;;;10513959;28;20305;-72
2021/04/02 13:15:58;;;;;;;15.77;12.50;;;;;;;;;;10480557;28;20216;-71
2021/04/02 13:21:03;;;;;;;14.70;11.05;;;;;;;;;;10469645;28;20205;-70
2021/04/02 13:26:06;;;;;;;14.05;10.73;;;;;;;;;;10465252;28;20220;-72
2021/04/02 13:31:07;;;;;;;14.70;12.63;;;;;;;;;;10466812;28;20558;-71
2021/04/02 13:36:12;;;;;;;14.77;12.35;;;;;;;;;;10467815;28;20230;-69
2021/04/02 13:41:14;;;;;;;12.90;10.98;;;;;;;;;;10491124;28;20196;-72
2021/04/02 13:46:16;;;;;;;12.65;10.15;;;;;;;;;;10469640;28;20253;-70
2021/04/02 13:51:18;;;;;;;13.15;10.88;;;;;;;;;;10481792;28;20542;-72
2021/04/02 13:56:20;;;;;;;12.05;9.40;;;;;;;;;;10469476;28;20308;-72
2021/04/02 14:01:21;;;;;;;12.23;9.40;;;;;;;;;;10468850;28;20687;-72
2021/04/02 14:06:24;;;;;;;11.20;8.20;;;;;;;;;;10476071;28;20208;-71
2021/04/02 14:11:25;;;;;;;11.35;7.93;;;;;;;;;;10468626;28;20533;-71
2021/04/02 14:16:27;;;;;;;11.02;8.27;;;;;;;;;;10474798;28;20243;-70
2021/04/02 14:21:29;;;;;;;10.63;8.00;;;;;;;;;;10465926;28;20724;-69
2021/04/02 14:26:31;;;;;;;11.07;7.82;;;;;;;;;;10481452;28;20224;-70
2021/04/02 14:31:32;;;;;;;12.10;7.88;;;;;;;;;;10480046;28;20271;-71
2021/04/02 14:36:35;;;;;;;12.13;8.73;;;;;;;;;;10471933;28;20247;-71
2021/04/02 14:41:36;;;;;;;13.20;8.50;;;;;;;;;;10483097;28;20199;-70
2021/04/02 14:46:38;;;;;;;13.07;8.38;;;;;;;;;;10473238;28;20219;-72
2021/04/02 14:51:40;;;;;;;13.45;8.70;;;;;;;;;;10482355;28;20249;-70
2021/04/02 14:56:42;;;;;;;11.47;8.00;;;;;;;;;;10465940;28;20277;-71
2021/04/02 15:01:44;;;;;;;11.90;7.80;;;;;;;;;;10475421;28;20587;-71
2021/04/02 15:06:46;;;;;;;12.37;8.00;;;;;;;;;;10474302;28;20239;-71
2021/04/02 15:11:48;;;;;;;11.43;7.40;;;;;;;;;;10468864;28;20657;-70
2021/04/02 15:16:49;;;;;;;10.83;7.60;;;;;;;;;;10467795;28;20642;-70
2021/04/02 15:21:51;;;;;;;11.60;7.77;;;;;;;;;;10464868;28;20673;-71
2021/04/02 15:26:53;;;;;;;11.57;8.60;;;;;;;;;;10468145;28;20305;-71
2021/04/02 15:31:55;;;;;;;10.93;7.67;;;;;;;;;;10464967;28;20585;-70
2021/04/02 15:36:57;;;;;;;11.90;7.90;;;;;;;;;;10467103;28;20208;-69
2021/04/02 15:41:59;;;;;;;11.63;8.40;;;;;;;;;;10468529;28;20238;-69
2021/04/02 15:47:00;;;;;;;11.87;7.63;;;;;;;;;;10474140;28;20704;-69
2021/04/02 15:52:06;;;;;;;11.07;8.10;;;;;;;;;;10475686;28;20216;-71
2021/04/02 15:57:08;;;;;;;11.50;7.73;;;;;;;;;;10473525;28;20225;-71
2021/04/02 16:02:10;;;;;;;11.07;7.47;;;;;;;;;;10467020;28;20199;-70
2021/04/02 16:07:13;;;;;;;10.03;6.53;;;;;;;;;;10465306;28;20241;-71
2021/04/02 16:12:15;;;;;;;10.53;6.27;;;;;;;;;;10474591;28;20533;-72
2021/04/02 16:17:17;;;;;;;10.07;6.03;;;;;;;;;;10472023;28;20568;-70
2021/04/02 16:22:20;;;;;;;9.13;5.73;;;;;;;;;;10481568;28;20229;-71
2021/04/02 16:27:22;;;;;;;8.53;5.50;;;;;;;;;;10449090;28;20212;-71
2021/04/02 16:32:23;;;;;;;10.17;6.00;;;;;;;;;;10473471;28;20204;-71
2021/04/02 16:37:26;;;;;;;9.57;5.73;;;;;;;;;;10478104;28;20242;-71
2021/04/02 16:42:28;;;;;;;9.00;5.33;;;;;;;;;;10475807;28;20192;-72
2021/04/02 16:47:30;;;;;;;9.30;5.00;;;;;;;;;;10471408;28;20714;-70
2021/04/02 16:52:32;;;;;;;10.10;5.70;;;;;;;;;;10466715;28;20201;-70
2021/04/02 16:57:34;;;;;;;11.13;6.03;;;;;;;;;;10465083;28;20591;-70
2021/04/02 17:02:36;;;;;;;10.20;5.37;;;;;;;;;;10455866;28;20591;-70
2021/04/02 17:07:38;;;;;;;7.80;4.53;;;;;;;;;;10466865;28;20306;-71
2021/04/02 17:12:40;;;;;;;8.47;5.20;;;;;;;;;;10468199;28;20939;-71
2021/04/02 17:17:44;;;;;;;8.00;4.50;;;;;;;;;;10475978;28;20216;-70
2021/04/02 17:22:46;;;;;;;8.07;4.90;;;;;;;;;;10486889;28;20615;-71
2021/04/02 17:27:48;;;;;;;8.93;4.80;;;;;;;;;;10478220;28;20215;-70
2021/04/02 17:32:49;;;;;;;8.70;4.87;;;;;;;;;;10476960;28;20267;-72
2021/04/02 17:37:52;;;;;;;8.70;4.83;;;;;;;;;;10464921;28;20188;-70
2021/04/02 17:42:53;;;;;;;9.67;4.10;;;;;;;;;;10479718;28;20207;-71
2021/04/02 17:47:55;;;;;;;7.83;3.70;;;;;;;;;;10481109;28;20319;-70
2021/04/02 17:52:58;;;;;;;6.40;3.43;;;;;;;;;;10471358;28;20204;-71
2021/04/02 17:58:00;;;;;;;6.17;3.33;;;;;;;;;;10478534;28;22037;-72
2021/04/02 18:03:05;;;;;;;7.50;3.43;;;;;;;;;;10470488;28;20192;-73
2021/04/02 18:08:08;;;;;;;6.10;3.23;;;;;;;;;;10486752;28;20192;-72
2021/04/02 18:13:10;;;;;;;6.93;3.30;;;;;;;;;;10482557;28;20258;-72
2021/04/02 18:18:11;;;;;;;6.37;3.13;;;;;;;;;;10478680;28;20700;-71
2021/04/02 18:23:17;;;;;;;6.90;3.60;;;;;;;;;;10483712;28;20228;-73
2021/04/02 18:28:20;;;;;;;6.63;3.50;;;;;;;;;;10485623;28;20214;-72
2021/04/02 18:33:21;;;;;;;7.27;3.60;;;;;;;;;;10471831;28;20726;-73
2021/04/02 18:38:24;;;;;;;7.33;3.60;;;;;;;;;;10478182;28;20196;-73
2021/04/02 18:43:25;;;;;;;8.50;3.80;;;;;;;;;;10479414;28;20667;-73
2021/04/02 18:48:27;;;;;;;8.60;3.80;;;;;;;;;;10484748;28;20196;-74
2021/04/02 18:53:31;;;;;;;7.67;3.80;;;;;;;;;;10477688;28;20236;-72
2021/04/02 18:58:33;;;;;;;7.43;3.73;;;;;;;;;;10479670;28;20192;-72
2021/04/02 19:03:36;;;;;;;7.50;3.73;;;;;;;;;;10479158;28;20216;-73
2021/04/02 19:08:39;;;;;;;7.53;3.83;;;;;;;;;;10477605;28;20210;-71
2021/04/02 19:13:43;;;;;;;8.60;4.30;;;;;;;;;;10480813;28;20689;-73
2021/04/02 19:18:45;;;;;;;8.20;4.23;;;;;;;;;;10484914;28;20252;-73
2021/04/02 19:23:47;;;;;;;8.03;3.83;;;;;;;;;;10483289;28;20576;-73
2021/04/02 19:28:49;;;;;;;8.70;3.87;;;;;;;;;;10475470;28;20196;-73
2021/04/02 19:33:51;;;;;;;7.53;3.50;;;;;;;;;;10468828;28;20244;-73
2021/04/02 19:38:53;;;;;;;8.13;3.73;;;;;;;;;;10475115;28;20595;-73
2021/04/02 19:43:55;;;;;;;8.00;3.80;;;;;;;;;;10464075;28;20228;-71
2021/04/02 19:48:56;;;;;;;7.10;3.53;;;;;;;;;;10460960;28;20227;-72
2021/04/02 19:53:59;;;;;;;8.70;4.47;;;;;;;;;;10455193;28;20230;-72
2021/04/02 19:59:00;;;;;;;8.60;4.10;;;;;;;;;;10454649;28;20200;-73
2021/04/02 20:04:05;;;;;;;9.17;4.10;;;;;;;;;;10455266;28;20217;-73
2021/04/02 20:09:07;;;;;;;9.30;4.10;;;;;;;;;;10461094;28;20204;-73
2021/04/02 20:14:13;;;;;;;12.63;6.63;;;;;;;;;;10466607;28;20220;-72
2021/04/02 20:19:14;;;;;;;7.77;3.57;;;;;;;;;;10469782;28;20188;-71
2021/04/02 20:24:17;;;;;;;7.73;3.87;;;;;;;;;;10461678;28;20299;-71
2021/04/02 20:29:18;;;;;;;11.27;5.27;;;;;;;;;;10461967;28;20207;-72
2021/04/02 20:34:20;;;;;;;8.00;3.77;;;;;;;;;;10470505;28;20667;-72
2021/04/02 20:39:23;;;;;;;7.37;3.50;;;;;;;;;;10468027;28;20253;-72
2021/04/02 20:44:24;;;;;;;18.47;9.03;;;;;;;;;;10458283;28;20220;-70
2021/04/02 20:49:26;;;;;;;7.50;3.70;;;;;;;;;;10466798;28;20499;-71
2021/04/02 20:54:28;;;;;;;8.07;3.93;;;;;;;;;;10462547;28;20244;-69
2021/04/02 20:59:30;;;;;;;8.60;4.50;;;;;;;;;;10463491;28;20284;-69
2021/04/02 21:04:32;;;;;;;7.77;4.00;;;;;;;;;;10468706;28;20675;-70
2021/04/02 21:09:34;;;;;;;7.67;4.10;;;;;;;;;;10460688;28;20317;-71
2021/04/02 21:14:36;;;;;;;9.20;4.70;;;;;;;;;;10463436;28;20294;-70
2021/04/02 21:19:37;;;;;;;9.07;4.50;;;;;;;;;;10465642;28;20271;-72
2021/04/02 21:24:40;;;;;;;8.60;4.17;;;;;;;;;;10473743;28;20292;-71
2021/04/02 21:29:41;;;;;;;7.93;4.00;;;;;;;;;;10474626;28;20219;-73
2021/04/02 21:34:43;;;;;;;8.00;4.00;;;;;;;;;;10472729;28;20216;-70
2021/04/02 21:39:45;;;;;;;7.90;3.83;;;;;;;;;;10477714;28;20668;-71
2021/04/02 21:44:47;;;;;;;8.47;4.00;;;;;;;;;;10472992;28;20308;-72
2021/04/02 21:49:50;;;;;;;8.20;3.93;;;;;;;;;;10472549;28;20208;-72
2021/04/02 21:54:52;;;;;;;8.53;4.13;;;;;;;;;;10472393;28;20224;-72
2021/04/02 21:59:54;;;;;;;7.47;4.20;;;;;;;;;;10479502;28;20197;-71
2021/04/02 22:04:55;;;;;;;7.47;3.70;;;;;;;;;;10470624;28;20221;-71
2021/04/02 22:09:58;;;;;;;7.40;3.87;;;;;;;;;;10468787;28;20292;-70
2021/04/02 22:14:59;;;;;;;9.07;3.70;;;;;;;;;;10473034;28;20278;-71
2021/04/02 22:20:04;;;;;;;7.97;3.87;;;;;;;;;;10473076;28;20265;-71
2021/04/02 22:25:07;;;;;;;8.00;4.20;;;;;;;;;;10467406;28;20208;-71
2021/04/02 22:30:11;;;;;;;8.10;3.70;;;;;;;;;;10468518;28;20522;-71
2021/04/02 22:35:15;;;;;;;8.33;3.97;;;;;;;;;;10463448;28;20724;-70
2021/04/02 22:40:20;;;;;;;6.97;3.40;;;;;;;;;;10468883;28;20269;-71
2021/04/02 22:45:21;;;;;;;8.20;3.87;;;;;;;;;;10474535;28;20298;-71
2021/04/02 22:50:24;;;;;;;8.00;4.13;;;;;;;;;;10471757;28;20269;-71
2021/04/02 22:55:27;;;;;;;8.13;4.10;;;;;;;;;;10470229;28;20251;-71
2021/04/02 23:00:30;;;;;;;8.00;3.90;;;;;;;;;;10465794;28;20268;-71
2021/04/02 23:05:33;;;;;;;8.20;4.20;;;;;;;;;;10466507;28;20266;-71
2021/04/02 23:10:37;;;;;;;8.80;3.70;;;;;;;;;;10465054;28;20310;-69
2021/04/02 23:15:38;;;;;;;7.30;3.70;;;;;;;;;;10474546;28;20302;-69
2021/04/02 23:20:41;;;;;;;6.73;2.87;;;;;;;;;;10470675;28;20189;-70
2021/04/02 23:25:44;;;;;;;7.70;3.70;;;;;;;;;;10477524;28;20236;-71
2021/04/02 23:30:45;;;;;;;7.93;3.93;;;;;;;;;;10467047;28;20287;-70
2021/04/02 23:35:48;;;;;;;7.80;3.93;;;;;;;;;;10471584;28;20223;-70
2021/04/02 23:40:51;;;;;;;7.87;3.97;;;;;;;;;;10474692;28;20193;-70
2021/04/02 23:45:53;;;;;;;8.77;4.00;;;;;;;;;;10472406;28;20220;-70
2021/04/02 23:50:58;;;;;;;9.07;4.17;;;;;;;;;;10479050;28;20200;-70
2021/04/02 23:56:03;;;;;;;8.47;4.20;;;;;;;;;;10467395;28;20303;-70
